Time;durP1;ratioP1;P1;durP2;ratioP2;P2;SDS_P1;SDS_P2;PMS_P1;PMS_P2;Temp;Humidity;BMP_temperature;BMP_pressure;BME280_temperature;BME280_humidity;BME280_pressure;Samples;Min_cycle;Max_cycle;Signal;HPM_P1;HPM_P2
2023/08/26 00:02:21;;;;;;;0.15;0.15;;;;;;;20.02;61.58;100974.28;5091112;28;20037;-79
2023/08/26 00:04:47;;;;;;;0.10;0.10;;;;;;;20.01;61.59;100972.56;5083561;28;20035;-79
2023/08/26 00:07:14;;;;;;;0.10;0.10;;;;;;;20.00;61.75;100965.44;5072362;28;20028;-82
2023/08/26 00:09:40;;;;;;;0.10;0.10;;;;;;;19.97;61.70;100959.38;5073504;28;20111;-79
2023/08/26 00:12:06;;;;;;;0.20;0.20;;;;;;;19.95;61.63;100953.22;5083098;28;20049;-80
2023/08/26 00:14:32;;;;;;;0.10;0.10;;;;;;;19.94;61.28;100964.91;5081886;28;20085;-82
2023/08/26 00:16:58;;;;;;;0.20;0.20;;;;;;;19.92;61.31;100965.00;5083838;28;20036;-82
2023/08/26 00:19:25;;;;;;;0.10;0.10;;;;;;;19.88;61.23;100960.78;5092539;28;20492;-81
2023/08/26 00:21:51;;;;;;;0.10;0.10;;;;;;;19.88;61.31;100967.00;5087179;28;20029;-80
2023/08/26 00:24:18;;;;;;;0.10;0.10;;;;;;;19.88;61.09;100967.00;5088487;28;20515;-80
2023/08/26 00:26:44;;;;;;;0.20;0.20;;;;;;;19.85;61.02;100967.19;5088069;28;20477;-79
2023/08/26 00:29:11;;;;;;;0.10;0.10;;;;;;;19.86;61.08;100968.06;5078955;28;20024;-81
2023/08/26 00:31:37;;;;;;;0.10;0.10;;;;;;;19.85;61.06;100969.00;5087620;28;20405;-80
2023/08/26 00:34:03;;;;;;;0.00;0.00;;;;;;;19.83;61.17;100963.72;5084782;28;20020;-81
2023/08/26 00:36:30;;;;;;;0.10;0.10;;;;;;;19.81;60.96;100959.34;5094462;28;20031;-82
2023/08/26 00:38:57;;;;;;;0.10;0.10;;;;;;;19.79;61.03;100962.13;5095110;28;20393;-80
2023/08/26 00:41:23;;;;;;;0.10;0.10;;;;;;;19.78;60.98;100955.03;5094863;28;20024;-81
2023/08/26 00:43:49;;;;;;;0.13;0.13;;;;;;;19.78;61.10;100954.16;5086193;28;20032;-83
2023/08/26 00:46:16;;;;;;;0.10;0.10;;;;;;;19.79;61.18;100956.75;5086977;28;20123;-82
2023/08/26 00:48:42;;;;;;;0.10;0.10;;;;;;;19.70;60.83;100952.78;5103078;28;20072;-78
2023/08/26 00:51:10;;;;;;;0.30;0.30;;;;;;;19.66;60.58;100956.56;5091665;28;20032;-83
2023/08/26 00:53:36;;;;;;;0.00;0.00;;;;;;;19.61;60.56;100945.22;5084769;28;20025;-82
2023/08/26 00:56:03;;;;;;;0.20;0.20;;;;;;;19.68;60.58;100951.13;5084859;28;20485;-82
2023/08/26 00:58:30;;;;;;;0.10;0.10;;;;;;;19.64;60.63;100950.44;5093277;28;20183;-83
2023/08/26 01:00:57;;;;;;;0.05;0.05;;;;;;;19.63;60.55;100955.91;5084434;28;20028;-81
2023/08/26 01:03:23;;;;;;;0.25;0.25;;;;;;;19.62;60.52;100952.31;5099889;28;20035;-83
2023/08/26 01:05:49;;;;;;;0.20;0.20;;;;;;;19.53;60.18;100955.53;5083667;28;20050;-84
2023/08/26 01:08:15;;;;;;;0.52;0.30;;;;;;;19.55;60.41;100953.63;5089914;28;20032;-84
2023/08/26 01:13:32;;;;;;;0.20;0.20;;;;;;;19.47;60.58;100953.19;5105141;27;20411;-82
2023/08/26 01:15:59;;;;;;;0.00;0.00;;;;;;;19.49;60.23;100956.66;5110295;28;20036;-81
2023/08/26 01:18:26;;;;;;;0.15;0.15;;;;;;;19.48;60.38;100954.94;5108100;28;20034;-83
2023/08/26 01:20:53;;;;;;;0.10;0.10;;;;;;;19.46;60.27;100948.78;5110680;27;20028;-82
2023/08/26 01:23:32;;;;;;;0.10;0.10;;;;;;;19.37;60.04;100948.31;5105250;28;20081;-83
2023/08/26 01:25:59;;;;;;;0.10;0.10;;;;;;;19.34;60.06;100939.56;5104913;28;20601;-82
2023/08/26 01:28:25;;;;;;;0.10;0.10;;;;;;;19.19;60.28;100946.66;5103977;28;20508;-83
2023/08/26 01:30:54;;;;;;;0.85;0.85;;;;;;;19.20;60.19;100943.00;5111994;27;20035;-82
2023/08/26 01:33:25;;;;;;;0.10;0.10;;;;;;;19.11;60.35;100943.53;5090794;28;20043;-84
2023/08/26 01:35:59;;;;;;;0.43;0.43;;;;;;;19.05;60.61;100934.84;5107426;28;20028;-82
2023/08/26 01:38:27;;;;;;;1.48;1.40;;;;;;;18.98;60.94;100938.81;5093078;28;20047;-83
2023/08/26 01:40:56;;;;;;;0.10;0.10;;;;;;;18.94;60.68;100945.31;5108532;28;20443;-83
2023/08/26 01:43:23;;;;;;;0.00;0.00;;;;;;;18.86;60.96;100944.81;5107701;28;20024;-82
2023/08/26 01:45:52;;;;;;;0.10;0.10;;;;;;;18.64;61.45;100950.44;5109213;28;20077;-84
2023/08/26 01:48:18;;;;;;;0.10;0.10;;;;;;;18.62;61.51;100952.31;5095614;28;20509;-83
2023/08/26 01:50:44;;;;;;;0.10;0.10;;;;;;;18.62;61.62;100958.56;5100916;28;20051;-83
2023/08/26 01:53:11;;;;;;;0.10;0.10;;;;;;;18.59;61.70;100956.03;5106241;28;20418;-83
2023/08/26 01:55:37;;;;;;;3.15;1.45;;;;;;;18.56;61.85;100953.53;5104779;28;20039;-81
2023/08/26 01:58:03;;;;;;;0.10;0.10;;;;;;;18.53;62.39;100953.66;5115634;28;20116;-81
2023/08/26 02:00:29;;;;;;;0.03;0.03;;;;;;;18.50;61.92;100949.31;5094610;27;20516;-81
2023/08/26 02:02:55;;;;;;;0.10;0.10;;;;;;;18.46;62.60;100954.97;5109428;28;20122;-81
2023/08/26 02:05:21;;;;;;;0.10;0.10;;;;;;;18.37;62.74;100949.09;5097282;28;20027;-84
2023/08/26 02:07:47;;;;;;;0.10;0.10;;;;;;;18.32;62.76;100953.84;5101270;28;20503;-83
2023/08/26 02:10:14;;;;;;;0.17;0.17;;;;;;;18.31;63.01;100956.59;5110189;28;20063;-84
2023/08/26 02:12:40;;;;;;;0.40;0.40;;;;;;;18.30;62.87;100945.00;5103832;28;20035;-83
2023/08/26 02:15:06;;;;;;;0.10;0.10;;;;;;;18.28;62.99;100946.91;5091290;28;20040;-83
2023/08/26 02:17:33;;;;;;;0.10;0.10;;;;;;;18.27;62.98;100947.84;5101147;28;20096;-83
2023/08/26 02:19:59;;;;;;;0.00;0.00;;;;;;;18.30;63.11;100947.66;5104656;28;20028;-83
2023/08/26 02:22:26;;;;;;;0.10;0.10;;;;;;;18.30;63.49;100958.41;5095771;28;20032;-83
2023/08/26 02:24:52;;;;;;;0.10;0.10;;;;;;;18.31;63.34;100954.78;5089251;28;20143;-83
2023/08/26 02:27:18;;;;;;;0.10;0.10;;;;;;;18.31;63.19;100946.72;5091989;28;20489;-83
2023/08/26 02:29:44;;;;;;;0.00;0.00;;;;;;;18.35;63.32;100951.00;5094463;28;20039;-84
2023/08/26 02:32:12;;;;;;;0.10;0.10;;;;;;;18.35;63.47;100940.25;5086607;28;20024;-84
2023/08/26 02:34:39;;;;;;;0.10;0.10;;;;;;;18.37;63.60;100946.41;5089702;28;20043;-83
2023/08/26 02:37:05;;;;;;;0.10;0.10;;;;;;;18.41;63.36;100950.66;5076295;28;20039;-83
2023/08/26 02:39:31;;;;;;;0.10;0.10;;;;;;;18.42;63.30;100946.19;5090500;28;20501;-83
2023/08/26 02:41:57;;;;;;;0.10;0.10;;;;;;;18.43;63.53;100943.44;5081410;28;20024;-83
2023/08/26 02:44:23;;;;;;;0.10;0.10;;;;;;;18.45;63.27;100946.03;5089703;28;20051;-83
2023/08/26 02:46:49;;;;;;;0.03;0.03;;;;;;;18.44;63.35;100938.91;5094454;28;20524;-84
2023/08/26 02:49:15;;;;;;;0.25;0.25;;;;;;;18.48;63.24;100936.94;5096096;28;20020;-83
2023/08/26 02:51:41;;;;;;;0.10;0.10;;;;;;;18.45;63.53;100940.66;5080513;28;20028;-83
2023/08/26 02:54:07;;;;;;;2.83;1.10;;;;;;;18.49;62.92;100941.38;5084503;28;20063;-84
2023/08/26 02:56:33;;;;;;;0.38;0.38;;;;;;;18.45;63.27;100935.28;5095678;28;20028;-83
2023/08/26 02:58:59;;;;;;;0.05;0.05;;;;;;;18.43;63.19;100935.38;5087042;28;20087;-83
2023/08/26 03:01:30;;;;;;;0.10;0.10;;;;;;;18.42;63.48;100935.47;5102106;28;20024;-83
2023/08/26 03:03:57;;;;;;;0.10;0.10;;;;;;;18.48;63.19;100934.25;5100456;28;20012;-84
2023/08/26 03:06:23;;;;;;;0.10;0.10;;;;;;;18.38;63.03;100934.75;5116197;28;20026;-84
2023/08/26 03:08:49;;;;;;;0.10;0.10;;;;;;;18.32;63.15;100940.44;5118218;28;20016;-84
2023/08/26 03:11:15;;;;;;;0.20;0.20;;;;;;;18.29;63.46;100943.25;5118530;28;20032;-83
2023/08/26 03:13:41;;;;;;;3.10;0.45;;;;;;;18.30;63.38;100936.09;5112638;28;20068;-84
2023/08/26 03:16:09;;;;;;;0.10;0.10;;;;;;;18.23;63.19;100943.56;5118016;28;20028;-85
2023/08/26 03:18:36;;;;;;;0.43;0.43;;;;;;;18.23;63.11;100946.25;5117391;28;20028;-85
2023/08/26 03:21:03;;;;;;;0.10;0.10;;;;;;;18.16;63.50;100950.19;5116777;28;20071;-84
2023/08/26 03:23:30;;;;;;;0.00;0.00;;;;;;;18.15;63.23;100943.09;5108426;28;20146;-84
2023/08/26 03:25:56;;;;;;;0.10;0.10;;;;;;;18.04;63.62;100947.16;5098913;28;20119;-84
2023/08/26 03:28:22;;;;;;;0.10;0.10;;;;;;;17.94;63.87;100945.88;5102476;28;20032;-84
2023/08/26 03:30:48;;;;;;;0.20;0.20;;;;;;;17.92;63.88;100947.75;5101537;28;20435;-84
2023/08/26 03:33:14;;;;;;;0.10;0.10;;;;;;;17.84;63.90;100952.63;5100861;28;20043;-84
2023/08/26 03:35:40;;;;;;;0.10;0.10;;;;;;;17.88;63.75;100951.53;5098804;28;20405;-84
2023/08/26 03:38:07;;;;;;;4.28;1.80;;;;;;;17.79;64.13;100948.38;5101059;28;20059;-84
2023/08/26 03:40:33;;;;;;;0.98;0.65;;;;;;;17.77;64.64;100952.91;5097149;28;20036;-84
2023/08/26 03:43:01;;;;;;;0.10;0.10;;;;;;;17.83;64.13;100948.19;5101673;28;20096;-84
2023/08/26 03:45:29;;;;;;;0.00;0.00;;;;;;;17.82;64.23;100957.19;5099632;28;20031;-84
2023/08/26 03:47:55;;;;;;;0.35;0.35;;;;;;;17.77;64.04;100960.97;5100101;28;20039;-84
2023/08/26 03:50:22;;;;;;;0.10;0.10;;;;;;;17.82;63.92;100954.50;5100621;28;20493;-84
2023/08/26 03:52:48;;;;;;;0.10;0.10;;;;;;;17.78;63.91;100954.66;5096774;28;20087;-84
2023/08/26 03:55:14;;;;;;;0.10;0.10;;;;;;;17.66;64.45;100957.03;5099423;28;20059;-84
2023/08/26 03:57:40;;;;;;;0.10;0.10;;;;;;;17.61;64.98;100962.66;5096134;28;20039;-85
2023/08/26 04:00:07;;;;;;;0.10;0.10;;;;;;;17.61;64.55;100960.81;5099592;28;20115;-84
2023/08/26 04:02:34;;;;;;;0.10;0.10;;;;;;;17.61;64.67;100965.31;5099142;28;20024;-84
2023/08/26 04:05:00;;;;;;;0.20;0.20;;;;;;;17.60;64.82;100963.59;5098358;28;20169;-84
2023/08/26 04:07:26;;;;;;;0.30;0.30;;;;;;;17.56;64.38;100970.91;5099784;28;20088;-84
2023/08/26 04:09:52;;;;;;;0.10;0.10;;;;;;;17.56;64.52;100968.22;5094974;28;20050;-84
2023/08/26 04:12:18;;;;;;;0.10;0.10;;;;;;;17.55;64.77;100973.66;5095886;28;20040;-84
2023/08/26 04:14:44;;;;;;;0.65;0.43;;;;;;;17.50;64.60;100967.66;5097877;28;20028;-85
2023/08/26 04:17:10;;;;;;;0.10;0.10;;;;;;;17.39;65.13;100977.03;5098519;28;20032;-85
2023/08/26 04:19:36;;;;;;;0.10;0.10;;;;;;;17.44;64.76;100969.66;5099135;28;20394;-84
2023/08/26 04:22:02;;;;;;;0.10;0.10;;;;;;;17.40;64.65;100967.22;5085975;28;20382;-84
2023/08/26 04:24:31;;;;;;;0.15;0.15;;;;;;;17.37;65.29;100967.34;5097260;28;20020;-84
2023/08/26 04:26:57;;;;;;;0.10;0.10;;;;;;;17.37;64.77;100964.66;5090002;28;20042;-84
2023/08/26 04:29:23;;;;;;;0.20;0.20;;;;;;;17.34;65.19;100973.69;5098295;28;20020;-84
2023/08/26 04:31:49;;;;;;;0.10;0.10;;;;;;;17.29;65.05;100970.38;5098295;28;20425;-84
2023/08/26 04:34:15;;;;;;;0.10;0.10;;;;;;;17.24;65.54;100972.41;5099144;28;20501;-83
2023/08/26 04:36:41;;;;;;;0.40;0.40;;;;;;;17.23;65.30;100987.56;5098580;28;20467;-84
2023/08/26 04:39:11;;;;;;;0.10;0.10;;;;;;;17.13;65.53;100992.50;5095088;28;20032;-81
2023/08/26 04:41:39;;;;;;;0.10;0.10;;;;;;;17.09;65.67;100988.22;5091436;28;20065;-83
2023/08/26 04:44:06;;;;;;;0.10;0.10;;;;;;;17.16;65.70;100990.59;5097875;28;20028;-84
2023/08/26 04:46:32;;;;;;;0.10;0.10;;;;;;;17.12;65.71;100998.78;5097291;28;20046;-83
2023/08/26 04:48:58;;;;;;;0.00;0.00;;;;;;;17.12;65.64;100992.56;5097572;28;20020;-83
2023/08/26 04:51:24;;;;;;;0.10;0.10;;;;;;;17.03;66.07;100993.84;5083144;28;20033;-82
2023/08/26 04:53:50;;;;;;;0.10;0.10;;;;;;;17.01;66.23;100993.06;5097994;28;20453;-83
2023/08/26 04:56:17;;;;;;;0.10;0.10;;;;;;;17.01;66.57;100995.72;5102395;28;20043;-84
2023/08/26 04:58:43;;;;;;;0.03;0.03;;;;;;;17.03;66.41;101001.88;5105627;28;20020;-83
2023/08/26 05:01:09;;;;;;;0.10;0.10;;;;;;;17.04;66.48;100998.25;5098892;28;20023;-83
2023/08/26 05:03:35;;;;;;;0.00;0.00;;;;;;;17.05;66.13;101015.19;5097354;28;20107;-83
2023/08/26 05:06:01;;;;;;;0.10;0.10;;;;;;;17.06;65.92;101016.91;5094719;28;20072;-83
2023/08/26 05:08:27;;;;;;;0.10;0.10;;;;;;;17.03;66.23;101017.94;5097267;28;20118;-84
2023/08/26 05:10:53;;;;;;;0.20;0.20;;;;;;;17.04;65.97;101017.00;5093772;28;20237;-84
2023/08/26 05:13:19;;;;;;;0.10;0.10;;;;;;;17.04;66.31;101013.47;5097085;28;20089;-83
2023/08/26 05:15:46;;;;;;;0.10;0.10;;;;;;;16.96;66.58;101016.47;5097316;28;20512;-84
2023/08/26 05:18:12;;;;;;;0.10;0.10;;;;;;;17.00;66.31;101015.41;5096292;28;20028;-83
2023/08/26 05:20:44;;;;;;;0.10;0.10;;;;;;;17.09;66.21;101014.13;5096976;28;20024;-82
2023/08/26 05:23:11;;;;;;;0.10;0.10;;;;;;;17.09;66.58;101001.59;5085638;28;20035;-83
2023/08/26 05:25:37;;;;;;;0.10;0.10;;;;;;;17.12;66.45;101004.16;5088352;28;20053;-84
2023/08/26 05:28:04;;;;;;;0.17;0.17;;;;;;;17.16;65.88;101004.88;5097855;28;20408;-82
2023/08/26 05:30:30;;;;;;;0.10;0.10;;;;;;;17.17;66.26;101000.38;5089895;28;20035;-84
2023/08/26 05:32:56;;;;;;;0.10;0.10;;;;;;;17.19;66.39;101011.91;5107569;28;20477;-80
2023/08/26 05:35:22;;;;;;;0.10;0.10;;;;;;;17.22;66.12;101011.75;5109754;28;20024;-80
2023/08/26 05:37:48;;;;;;;2.80;0.52;;;;;;;17.25;66.31;101009.81;5105087;28;20096;-83
2023/08/26 05:40:16;;;;;;;0.10;0.10;;;;;;;17.26;66.26;101010.69;5092736;28;20085;-81
2023/08/26 05:42:42;;;;;;;4.63;0.95;;;;;;;17.28;66.26;101006.13;5100932;28;20482;-84
2023/08/26 05:45:09;;;;;;;0.10;0.10;;;;;;;17.34;66.14;101010.34;5094308;28;20020;-83
2023/08/26 05:47:35;;;;;;;0.10;0.10;;;;;;;17.39;66.32;101006.50;5099829;28;20048;-83
2023/08/26 05:50:02;;;;;;;0.10;0.10;;;;;;;17.44;66.35;101007.16;5095830;28;20035;-83
2023/08/26 05:52:28;;;;;;;0.10;0.10;;;;;;;17.52;66.28;101003.25;5097973;28;20543;-81
2023/08/26 05:54:55;;;;;;;0.10;0.10;;;;;;;17.55;66.28;100998.63;5099047;28;20061;-80
2023/08/26 05:57:21;;;;;;;0.10;0.10;;;;;;;17.59;66.12;100994.00;5092090;28;20036;-80
2023/08/26 05:59:47;;;;;;;0.10;0.10;;;;;;;17.61;66.24;100997.47;5100374;28;20039;-80
2023/08/26 06:02:13;;;;;;;0.10;0.10;;;;;;;17.66;66.10;100995.44;5101190;28;20339;-81
2023/08/26 06:04:39;;;;;;;0.15;0.15;;;;;;;17.69;65.99;100994.44;5099857;28;20027;-81
2023/08/26 06:07:05;;;;;;;0.10;0.10;;;;;;;17.70;66.09;100991.66;5094290;28;20037;-81
2023/08/26 06:09:31;;;;;;;0.03;0.03;;;;;;;17.76;66.06;100994.06;5088239;28;20093;-83
2023/08/26 06:11:57;;;;;;;0.10;0.10;;;;;;;17.81;66.14;100992.94;5095488;28;20110;-82
2023/08/26 06:14:23;;;;;;;0.10;0.10;;;;;;;17.77;66.41;100998.47;5100228;28;20028;-82
2023/08/26 06:16:49;;;;;;;0.10;0.10;;;;;;;17.81;66.44;100987.59;5099902;28;20031;-81
2023/08/26 06:19:15;;;;;;;0.90;0.90;;;;;;;17.88;66.27;100994.41;5101389;28;20481;-82
2023/08/26 06:21:41;;;;;;;0.00;0.00;;;;;;;17.91;66.29;100988.91;5090733;28;20021;-82
2023/08/26 06:24:07;;;;;;;0.20;0.20;;;;;;;17.92;66.34;100988.84;5081087;28;20036;-83
2023/08/26 06:26:33;;;;;;;0.20;0.20;;;;;;;17.96;66.16;100986.91;5087638;28;20059;-82
2023/08/26 06:29:00;;;;;;;0.10;0.10;;;;;;;18.00;66.16;100983.13;5084216;28;20029;-81
2023/08/26 06:31:26;;;;;;;0.47;0.47;;;;;;;18.10;66.14;100981.72;5080260;28;20435;-83
2023/08/26 06:33:52;;;;;;;0.10;0.10;;;;;;;18.17;66.22;100984.09;5080251;28;20039;-82
2023/08/26 06:36:18;;;;;;;0.10;0.10;;;;;;;18.27;66.01;100996.97;5078686;28;20033;-82
2023/08/26 06:38:44;;;;;;;0.10;0.10;;;;;;;18.35;65.69;101006.47;5079993;28;20051;-81
2023/08/26 06:41:10;;;;;;;0.10;0.10;;;;;;;18.43;65.44;101012.31;5093062;28;20031;-83
2023/08/26 06:43:36;;;;;;;0.10;0.10;;;;;;;18.51;64.79;101003.88;5080684;28;20055;-83
2023/08/26 06:46:03;;;;;;;0.10;0.10;;;;;;;18.59;64.75;101009.69;5093145;28;20024;-83
2023/08/26 06:48:29;;;;;;;0.20;0.20;;;;;;;18.64;64.20;101012.16;5079710;28;20036;-84
2023/08/26 06:50:55;;;;;;;0.95;0.80;;;;;;;18.75;64.26;101023.22;5080248;28;20028;-82
2023/08/26 06:53:21;;;;;;;0.20;0.20;;;;;;;18.75;63.97;101018.72;5079021;28;20571;-83
2023/08/26 06:55:49;;;;;;;0.00;0.00;;;;;;;18.83;64.06;101026.38;5086864;28;20024;-84
2023/08/26 06:58:16;;;;;;;0.10;0.10;;;;;;;18.84;64.12;101021.84;5092451;28;20028;-84
2023/08/26 07:00:42;;;;;;;0.00;0.00;;;;;;;18.85;63.42;101020.91;5079250;28;20107;-82
2023/08/26 07:03:09;;;;;;;0.63;0.38;;;;;;;18.87;63.34;101021.72;5079373;28;20104;-84
2023/08/26 07:05:37;;;;;;;0.88;0.88;;;;;;;18.90;63.48;101016.19;5078598;28;20036;-83
2023/08/26 07:08:04;;;;;;;0.00;0.00;;;;;;;18.93;63.36;101016.06;5078855;28;20029;-84
2023/08/26 07:10:30;;;;;;;0.40;0.40;;;;;;;18.95;63.42;101024.88;5089577;28;20032;-84
2023/08/26 07:12:57;;;;;;;0.10;0.10;;;;;;;18.82;62.92;101029.16;5085537;28;20029;-84
2023/08/26 07:15:23;;;;;;;0.50;0.50;;;;;;;18.89;62.63;101027.84;5079279;28;20031;-85
2023/08/26 07:17:49;;;;;;;0.10;0.10;;;;;;;18.91;62.15;101034.06;5079889;28;20021;-84
2023/08/26 07:20:15;;;;;;;0.20;0.20;;;;;;;18.89;61.70;101026.06;5079060;28;20020;-84
2023/08/26 07:22:41;;;;;;;0.22;0.22;;;;;;;18.98;61.97;101024.75;5082871;28;20087;-84
2023/08/26 07:25:08;;;;;;;0.20;0.20;;;;;;;19.13;61.73;101032.91;5093166;28;20112;-85
2023/08/26 07:27:34;;;;;;;0.30;0.30;;;;;;;19.11;61.22;101026.78;5099686;28;20073;-85
2023/08/26 07:30:00;;;;;;;0.10;0.10;;;;;;;19.12;60.59;101031.22;5099789;28;20042;-86
2023/08/26 07:32:27;;;;;;;0.20;0.20;;;;;;;19.14;61.03;101032.88;5101982;28;20028;-85
2023/08/26 07:34:53;;;;;;;0.10;0.10;;;;;;;19.20;61.25;101037.03;5091870;28;20618;-85
2023/08/26 07:37:19;;;;;;;0.50;0.50;;;;;;;19.14;60.82;101032.88;5100173;28;20044;-85
2023/08/26 07:39:45;;;;;;;0.10;0.10;;;;;;;19.30;60.70;101026.66;5096448;28;20028;-84
2023/08/26 07:42:11;;;;;;;0.00;0.00;;;;;;;19.31;60.50;101025.72;5099550;28;20034;-85
2023/08/26 07:44:37;;;;;;;0.28;0.28;;;;;;;19.28;60.60;101032.13;5099623;28;20027;-85
2023/08/26 07:47:03;;;;;;;0.10;0.10;;;;;;;19.44;60.15;101032.16;5092404;28;20109;-84
2023/08/26 07:49:29;;;;;;;0.10;0.10;;;;;;;19.34;59.53;101023.72;5085831;28;20485;-85
2023/08/26 07:51:55;;;;;;;0.00;0.00;;;;;;;19.46;59.98;101026.69;5079931;28;20146;-84
2023/08/26 07:54:21;;;;;;;0.25;0.17;;;;;;;19.45;59.45;101027.66;5096604;28;20073;-85
2023/08/26 07:56:47;;;;;;;0.20;0.20;;;;;;;19.48;59.62;101030.19;5097366;28;20062;-85
2023/08/26 07:59:13;;;;;;;0.10;0.10;;;;;;;19.55;59.50;101024.38;5093135;28;20047;-84
2023/08/26 08:01:39;;;;;;;0.30;0.30;;;;;;;19.66;59.79;101026.44;5086144;28;20032;-84
2023/08/26 08:04:06;;;;;;;0.10;0.10;;;;;;;19.64;58.96;101023.00;5091256;28;20031;-85
2023/08/26 08:06:32;;;;;;;0.10;0.10;;;;;;;19.77;59.31;101027.69;5080427;28;20048;-85
2023/08/26 08:08:58;;;;;;;0.10;0.10;;;;;;;19.77;58.80;101027.69;5088109;28;20043;-85
2023/08/26 08:11:24;;;;;;;0.10;0.10;;;;;;;19.82;59.02;101025.63;5079559;28;20040;-86
2023/08/26 08:13:51;;;;;;;0.10;0.10;;;;;;;19.89;58.53;101024.34;5079411;28;20516;-85
2023/08/26 08:16:17;;;;;;;0.30;0.30;;;;;;;19.87;58.09;101040.56;5079068;28;20051;-86
2023/08/26 08:18:43;;;;;;;0.10;0.10;;;;;;;19.86;57.42;101037.97;5087604;28;20033;-84
2023/08/26 08:21:09;;;;;;;0.10;0.10;;;;;;;19.93;57.65;101039.34;5076714;28;20029;-84
2023/08/26 08:23:36;;;;;;;0.20;0.20;;;;;;;19.92;56.95;101048.38;5096607;28;20069;-82
2023/08/26 08:26:03;;;;;;;0.75;0.75;;;;;;;20.03;57.52;101045.94;5087695;28;20071;-84
2023/08/26 08:28:29;;;;;;;0.10;0.10;;;;;;;20.06;56.72;101046.72;5079063;28;20021;-82
2023/08/26 08:30:55;;;;;;;0.10;0.10;;;;;;;20.00;55.79;101047.94;5078018;28;20090;-83
2023/08/26 08:33:21;;;;;;;0.43;0.43;;;;;;;20.06;56.25;101044.03;5085189;28;20370;-82
2023/08/26 08:35:47;;;;;;;0.20;0.20;;;;;;;20.10;56.19;101050.97;5085132;28;20024;-83
2023/08/26 08:38:13;;;;;;;0.10;0.10;;;;;;;20.14;56.46;101048.03;5092726;28;20039;-82
2023/08/26 08:40:41;;;;;;;0.20;0.20;;;;;;;20.18;55.31;101048.72;5093071;28;20046;-83
2023/08/26 08:43:07;;;;;;;0.10;0.10;;;;;;;20.23;55.40;101052.00;5091632;28;20001;-80
2023/08/26 08:45:35;;;;;;;0.65;0.65;;;;;;;20.27;56.04;101058.09;5087943;28;20021;-79
2023/08/26 08:48:01;;;;;;;1.35;0.43;;;;;;;20.33;56.10;101057.75;5089222;28;20037;-81
2023/08/26 08:50:31;;;;;;;0.10;0.10;;;;;;;20.39;55.94;101056.50;5097177;28;20053;-78
2023/08/26 08:52:58;;;;;;;2.33;0.52;;;;;;;20.48;56.90;101051.44;5094457;28;20027;-83
2023/08/26 08:55:24;;;;;;;0.10;0.10;;;;;;;20.48;56.62;101059.53;5090479;28;20040;-78
2023/08/26 08:57:53;;;;;;;0.08;0.08;;;;;;;20.62;55.95;101061.44;5096157;28;20036;-79
2023/08/26 09:00:23;;;;;;;0.00;0.00;;;;;;;20.84;55.98;101063.72;5114652;28;20049;-80
2023/08/26 09:02:51;;;;;;;0.10;0.10;;;;;;;21.03;55.20;101057.22;5099930;28;20029;-82
2023/08/26 09:05:18;;;;;;;0.00;0.00;;;;;;;21.21;54.73;101060.66;5088556;28;20092;-83
2023/08/26 09:07:46;;;;;;;0.13;0.13;;;;;;;21.32;53.79;101058.16;5093090;28;20028;-83
2023/08/26 09:10:12;;;;;;;0.08;0.08;;;;;;;21.32;53.57;101055.47;5099741;28;20024;-78
2023/08/26 09:12:39;;;;;;;0.00;0.00;;;;;;;21.20;53.24;101061.59;5101763;28;20032;-81
2023/08/26 09:15:06;;;;;;;0.10;0.10;;;;;;;21.17;53.77;101065.34;5099624;28;20032;-83
2023/08/26 09:17:33;;;;;;;0.10;0.10;;;;;;;21.00;53.68;101069.06;5102121;28;20027;-82
2023/08/26 09:20:01;;;;;;;0.10;0.10;;;;;;;20.95;54.35;101065.78;5096920;28;20528;-83
2023/08/26 09:22:30;;;;;;;0.10;0.10;;;;;;;20.93;54.84;101062.31;5095161;28;20028;-84
2023/08/26 09:24:57;;;;;;;1.52;1.02;;;;;;;20.95;55.26;101059.53;5101029;28;20024;-81
2023/08/26 09:27:23;;;;;;;0.00;0.00;;;;;;;21.04;55.34;101061.66;5100509;28;21022;-83
2023/08/26 09:29:51;;;;;;;0.20;0.20;;;;;;;21.06;55.42;101066.94;5100180;28;20044;-83
2023/08/26 09:32:33;;;;;;;0.00;0.00;;;;;;;21.20;54.85;101069.69;5086375;28;20023;-82
2023/08/26 09:35:16;;;;;;;0.10;0.10;;;;;;;21.23;53.97;101074.00;5094542;28;20024;-80
2023/08/26 09:37:45;;;;;;;0.00;0.00;;;;;;;21.21;54.13;101079.50;5095877;28;20039;-83
2023/08/26 09:40:13;;;;;;;0.10;0.10;;;;;;;21.27;53.67;101073.75;5115947;28;20079;-84
2023/08/26 09:42:40;;;;;;;0.10;0.10;;;;;;;21.37;54.24;101079.44;5102316;28;20054;-83
2023/08/26 09:45:08;;;;;;;0.10;0.10;;;;;;;21.40;53.32;101070.28;5103954;28;20027;-83
2023/08/26 09:47:36;;;;;;;0.15;0.15;;;;;;;21.52;53.36;101079.41;5089111;28;20035;-83
2023/08/26 09:50:03;;;;;;;0.10;0.10;;;;;;;21.57;53.24;101072.81;5090885;28;20020;-81
2023/08/26 09:52:29;;;;;;;0.30;0.30;;;;;;;21.52;52.97;101061.44;5087368;28;20443;-82
2023/08/26 09:54:56;;;;;;;0.10;0.10;;;;;;;21.40;52.62;101067.59;5096200;28;20622;-82
2023/08/26 09:57:22;;;;;;;0.10;0.10;;;;;;;21.36;52.98;101074.13;5096451;28;20051;-82
2023/08/26 09:59:51;;;;;;;0.10;0.10;;;;;;;21.55;53.48;101063.06;5087075;28;20024;-82
2023/08/26 10:02:22;;;;;;;0.10;0.10;;;;;;;21.90;52.96;101068.94;5093822;28;20023;-81
2023/08/26 10:04:56;;;;;;;0.10;0.10;;;;;;;22.17;52.13;101070.81;5094735;28;20020;-82
2023/08/26 10:07:24;;;;;;;0.10;0.10;;;;;;;22.43;51.58;101070.94;5091919;28;20035;-81
2023/08/26 10:09:57;;;;;;;0.00;0.00;;;;;;;22.59;51.07;101071.69;5096287;28;20094;-82
2023/08/26 10:12:36;;;;;;;0.00;0.00;;;;;;;22.64;48.48;101067.78;5082239;28;20044;-80
2023/08/26 10:15:03;;;;;;;0.10;0.10;;;;;;;22.67;49.93;101068.44;5093620;28;20032;-81
2023/08/26 10:17:32;;;;;;;1.35;1.10;;;;;;;22.66;49.31;101066.72;5095611;28;20028;-81
2023/08/26 10:19:59;;;;;;;1.38;0.60;;;;;;;22.61;49.89;101067.00;5108807;28;20042;-80
2023/08/26 10:22:26;;;;;;;0.10;0.10;;;;;;;22.52;49.11;101064.94;5102272;28;20501;-81
2023/08/26 10:24:53;;;;;;;0.00;0.00;;;;;;;22.65;49.49;101058.72;5100884;28;20020;-82
2023/08/26 10:27:20;;;;;;;0.10;0.10;;;;;;;22.87;49.64;101050.88;5093857;28;20033;-80
2023/08/26 10:29:47;;;;;;;0.10;0.10;;;;;;;23.02;48.25;101053.50;5080700;28;20050;-83
2023/08/26 10:32:22;;;;;;;0.32;0.32;;;;;;;23.27;49.16;101056.22;5084180;28;20737;-82
2023/08/26 10:34:57;;;;;;;0.10;0.10;;;;;;;23.32;47.71;101053.22;5090770;28;20021;-82
2023/08/26 10:37:27;;;;;;;0.10;0.10;;;;;;;23.30;48.56;101051.59;5092747;28;20078;-83
2023/08/26 10:39:54;;;;;;;0.10;0.10;;;;;;;23.26;48.81;101049.13;5094455;28;20025;-83
2023/08/26 10:42:21;;;;;;;0.10;0.10;;;;;;;23.28;48.71;101046.31;5081734;28;20025;-82
2023/08/26 10:44:56;;;;;;;0.10;0.10;;;;;;;23.18;48.80;101046.09;5079984;28;20044;-80
2023/08/26 10:47:45;;;;;;;0.10;0.10;;;;;;;23.14;48.75;101049.94;5079943;28;20032;-83
2023/08/26 10:50:27;;;;;;;0.10;0.10;;;;;;;23.11;49.35;101047.44;5084582;28;20105;-83
2023/08/26 10:52:59;;;;;;;0.10;0.10;;;;;;;22.93;48.67;101042.34;5087631;28;20081;-82
2023/08/26 10:55:26;;;;;;;;;;;;;;;22.92;47.88;101051.44;5082438;28;20024;-83
2023/08/26 11:00:46;;;;;;;0.10;0.10;;;;;;;22.96;48.96;101056.63;5104782;27;20389;-83
2023/08/26 11:03:14;;;;;;;0.10;0.10;;;;;;;23.13;47.48;101050.03;5092974;28;20029;-82
2023/08/26 11:05:45;;;;;;;0.10;0.10;;;;;;;23.35;46.89;101052.13;5103086;28;20110;-82
2023/08/26 11:08:12;;;;;;;0.10;0.10;;;;;;;23.51;45.14;101035.69;5104645;28;20024;-82
2023/08/26 11:10:40;;;;;;;0.10;0.10;;;;;;;23.66;46.25;101031.00;5100111;28;20029;-82
2023/08/26 11:13:07;;;;;;;0.10;0.10;;;;;;;23.83;46.00;101025.22;5094589;28;20097;-82
2023/08/26 11:15:42;;;;;;;0.08;0.08;;;;;;;23.96;45.02;101035.19;5090471;28;20123;-81
2023/08/26 11:18:10;;;;;;;0.05;0.05;;;;;;;23.76;44.49;101037.47;5100506;28;20119;-83
2023/08/26 11:20:37;;;;;;;0.10;0.10;;;;;;;23.61;44.55;101030.47;5089145;28;20036;-83
2023/08/26 11:23:05;;;;;;;0.10;0.10;;;;;;;23.58;45.93;101043.25;5085771;28;20036;-84
2023/08/26 11:25:33;;;;;;;0.03;0.03;;;;;;;23.43;46.16;101042.50;5095140;28;20020;-85
2023/08/26 11:28:04;;;;;;;0.10;0.10;;;;;;;23.45;46.67;101036.97;5098109;28;20116;-83
2023/08/26 11:30:30;;;;;;;0.05;0.05;;;;;;;23.46;46.96;101036.00;5096362;28;20070;-83